N1TF KSAN-KAPC
Flight info
| Callsign | N1TF |
|---|---|
| Flight time | N/A |
| Altitude | 43000 |
| Route | PADRZ2 OROSZ COREZ RGOOD VNYRD1 |
| Aircraft | C700/M-SBDGHM1RWXY/LB2 |
Departure
| Time | 2026-05-07 15:43 |
|---|---|
| Airport | San Diego International Airport (KSAN) |
Arrival
| Time | N/A |
|---|---|
| Airport | Napa County Airport (KAPC) |
| Time | Latitude | Longitude | Altitude | Speed | Heading |
|---|---|---|---|---|---|
| 2026-05-07 15:19 | 32.73344 | -117.17873 | 24 ft | 0 kts | 185° |
| 2026-05-07 15:39 | 32.73318 | -117.17868 | 23 ft | 9 kts | 156° |
| 2026-05-07 15:40 | 32.73305 | -117.17858 | 23 ft | 0 kts | 149° |
| 2026-05-07 15:40 | 32.73299 | -117.17862 | 22 ft | 3 kts | 224° |
| 2026-05-07 15:40 | 32.73298 | -117.17912 | 23 ft | 13 kts | 275° |
| 2026-05-07 15:41 | 32.73261 | -117.17981 | 22 ft | 10 kts | 186° |
| 2026-05-07 15:41 | 32.73215 | -117.17909 | 20 ft | 14 kts | 106° |
| 2026-05-07 15:41 | 32.73186 | -117.17788 | 24 ft | 17 kts | 106° |
| 2026-05-07 15:41 | 32.73150 | -117.17641 | 22 ft | 20 kts | 105° |
| 2026-05-07 15:42 | 32.73119 | -117.17573 | 21 ft | 9 kts | 142° |
| 2026-05-07 15:42 | 32.73048 | -117.17530 | 24 ft | 13 kts | 178° |
| 2026-05-07 15:42 | 32.73026 | -117.17608 | 21 ft | 14 kts | 288° |
| 2026-05-07 15:42 | 32.73112 | -117.17961 | 18 ft | 95 kts | 286° |
| 2026-05-07 15:43 | 32.73380 | -117.19055 | 270 ft | 169 kts | 286° |
| 2026-05-07 15:43 | 32.73849 | -117.20538 | 1186 ft | 202 kts | 300° |
| 2026-05-07 15:43 | 32.74602 | -117.21874 | 2934 ft | 194 kts | 306° |
| 2026-05-07 15:43 | 32.75363 | -117.23249 | 4334 ft | 203 kts | 304° |
| 2026-05-07 15:44 | 32.76131 | -117.24692 | 5762 ft | 210 kts | 304° |
| 2026-05-07 15:44 | 32.76924 | -117.26190 | 7159 ft | 218 kts | 304° |
| 2026-05-07 15:44 | 32.77749 | -117.27740 | 8482 ft | 226 kts | 304° |
| 2026-05-07 15:44 | 32.78607 | -117.29350 | 9806 ft | 235 kts | 304° |
| 2026-05-07 15:45 | 32.79496 | -117.31019 | 11056 ft | 241 kts | 305° |
| 2026-05-07 15:45 | 32.80466 | -117.32648 | 12359 ft | 243 kts | 311° |
| 2026-05-07 15:45 | 32.81511 | -117.34238 | 13637 ft | 246 kts | 311° |
| 2026-05-07 15:45 | 32.82565 | -117.35865 | 14763 ft | 253 kts | 311° |
| 2026-05-07 15:46 | 32.84839 | -117.39401 | 14981 ft | 265 kts | 311° |
| 2026-05-07 15:46 | 32.85931 | -117.41104 | 14974 ft | 255 kts | 312° |
| 2026-05-07 15:46 | 32.86998 | -117.42756 | 14973 ft | 249 kts | 312° |
| 2026-05-07 15:47 | 32.88043 | -117.44373 | 14975 ft | 251 kts | 312° |
| 2026-05-07 15:47 | 32.89113 | -117.46032 | 14976 ft | 254 kts | 312° |
| 2026-05-07 15:47 | 32.90195 | -117.47715 | 14980 ft | 257 kts | 311° |
| 2026-05-07 15:47 | 32.91282 | -117.49406 | 14981 ft | 257 kts | 312° |
| 2026-05-07 15:48 | 32.92367 | -117.51096 | 14978 ft | 256 kts | 311° |
| 2026-05-07 15:48 | 32.93457 | -117.52791 | 15050 ft | 261 kts | 312° |
| 2026-05-07 15:48 | 32.94538 | -117.54478 | 16263 ft | 251 kts | 312° |
| 2026-05-07 15:48 | 32.95610 | -117.56147 | 17347 ft | 257 kts | 312° |
| 2026-05-07 15:49 | 32.96704 | -117.57851 | 18416 ft | 260 kts | 313° |
| 2026-05-07 15:49 | 32.97808 | -117.59571 | 19329 ft | 263 kts | 312° |
| 2026-05-07 15:49 | 32.98909 | -117.61292 | 20222 ft | 266 kts | 312° |
| 2026-05-07 15:49 | 33.00037 | -117.63053 | 21099 ft | 269 kts | 312° |
| 2026-05-07 15:50 | 33.01180 | -117.64839 | 21944 ft | 273 kts | 312° |
| 2026-05-07 15:50 | 33.02341 | -117.66653 | 22777 ft | 276 kts | 312° |
| 2026-05-07 15:50 | 33.03513 | -117.68486 | 23642 ft | 280 kts | 312° |
| 2026-05-07 15:50 | 33.04701 | -117.70346 | 24382 ft | 283 kts | 311° |
| 2026-05-07 15:51 | 33.05900 | -117.72217 | 25135 ft | 285 kts | 313° |
| 2026-05-07 15:51 | 33.07287 | -117.73888 | 25874 ft | 283 kts | 324° |
| 2026-05-07 15:51 | 33.08808 | -117.75403 | 26597 ft | 287 kts | 323° |
| 2026-05-07 15:51 | 33.10330 | -117.76965 | 27301 ft | 290 kts | 323° |
| 2026-05-07 15:52 | 33.11868 | -117.78538 | 27993 ft | 293 kts | 323° |
| 2026-05-07 15:52 | 33.13428 | -117.80123 | 28690 ft | 296 kts | 323° |
| 2026-05-07 15:52 | 33.15007 | -117.81726 | 29377 ft | 299 kts | 323° |
| 2026-05-07 15:52 | 33.16603 | -117.83352 | 30061 ft | 302 kts | 323° |
| 2026-05-07 15:53 | 33.18210 | -117.84990 | 30656 ft | 305 kts | 323° |
| 2026-05-07 15:53 | 33.19833 | -117.86626 | 31255 ft | 305 kts | 324° |
| 2026-05-07 15:53 | 33.21470 | -117.88207 | 31832 ft | 306 kts | 324° |
| 2026-05-07 15:53 | 33.23118 | -117.89822 | 32398 ft | 307 kts | 323° |
| 2026-05-07 15:54 | 33.24770 | -117.91440 | 32946 ft | 308 kts | 324° |
| 2026-05-07 15:54 | 33.26435 | -117.93064 | 33479 ft | 309 kts | 324° |
| 2026-05-07 15:54 | 33.28107 | -117.94694 | 33996 ft | 310 kts | 323° |
| 2026-05-07 15:54 | 33.29782 | -117.96330 | 34426 ft | 311 kts | 323° |
| 2026-05-07 15:55 | 33.31470 | -117.97980 | 34792 ft | 314 kts | 323° |
| 2026-05-07 15:55 | 33.33166 | -117.99638 | 35153 ft | 316 kts | 323° |
| 2026-05-07 15:55 | 33.34854 | -118.01289 | 35494 ft | 319 kts | 323° |
| 2026-05-07 15:55 | 33.36579 | -118.02978 | 35822 ft | 321 kts | 323° |
| 2026-05-07 15:56 | 33.38315 | -118.04678 | 36135 ft | 323 kts | 323° |
| 2026-05-07 15:56 | 33.40060 | -118.06388 | 36435 ft | 325 kts | 323° |
| 2026-05-07 15:56 | 33.41816 | -118.08109 | 36685 ft | 328 kts | 323° |
| 2026-05-07 15:56 | 33.43587 | -118.09847 | 36949 ft | 330 kts | 323° |
| 2026-05-07 15:57 | 33.45367 | -118.11593 | 37208 ft | 331 kts | 323° |
| 2026-05-07 15:57 | 33.47155 | -118.13349 | 37456 ft | 333 kts | 323° |
| 2026-05-07 15:57 | 33.48342 | -118.14515 | 37611 ft | 334 kts | 323° |
| 2026-05-07 15:57 | 33.50144 | -118.16287 | 37834 ft | 336 kts | 323° |
| 2026-05-07 15:58 | 33.51955 | -118.18067 | 38045 ft | 337 kts | 323° |
| 2026-05-07 15:58 | 33.53770 | -118.19854 | 38248 ft | 338 kts | 322° |
| 2026-05-07 15:58 | 33.56190 | -118.22235 | 38497 ft | 340 kts | 323° |